Time;durP1;ratioP1;P1;durP2;ratioP2;P2;SDS_P1;SDS_P2;PMS_P1;PMS_P2;Temp;Humidity;BMP_temperature;BMP_pressure;BME280_temperature;BME280_humidity;BME280_pressure;Samples;Min_cycle;Max_cycle;Signal;HPM_P1;HPM_P2
2023/01/14 00:00:35;;;;;;;37.47;4.63;;;7.60;99.90;;;;;;4052499;29;20276;-95
2023/01/14 00:02:38;;;;;;;41.20;5.07;;;7.60;99.90;;;;;;4046060;29;20173;-95
2023/01/14 00:04:41;;;;;;;32.45;5.18;;;7.60;99.90;;;;;;4046394;29;20169;-95
2023/01/14 00:06:45;;;;;;;28.27;3.47;;;7.70;99.90;;;;;;4044822;29;20288;-93
2023/01/14 00:08:46;;;;;;;27.25;3.97;;;7.80;99.90;;;;;;4062261;29;20232;-94
2023/01/14 00:10:49;;;;;;;40.23;5.27;;;7.70;99.90;;;;;;4048652;29;20181;-93
2023/01/14 00:12:50;;;;;;;40.72;4.28;;;7.70;99.90;;;;;;4062343;29;20154;-93
2023/01/14 00:14:59;;;;;;;38.80;4.37;;;7.60;99.90;;;;;;4046342;29;20727;-95
2023/01/14 00:17:04;;;;;;;38.33;4.43;;;7.60;99.90;;;;;;4060989;29;20204;-95
2023/01/14 00:19:05;;;;;;;32.10;3.90;;;7.50;99.90;;;;;;4046590;29;20178;-93
2023/01/14 00:21:13;;;;;;;40.28;4.32;;;7.50;99.90;;;;;;4060845;29;20173;-94
2023/01/14 00:23:16;;;;;;;27.80;4.28;;;7.60;99.90;;;;;;4061883;29;20257;-94
2023/01/14 00:25:20;;;;;;;31.83;4.20;;;7.40;99.90;;;;;;4058361;29;20197;-92
2023/01/14 00:27:23;;;;;;;25.40;3.63;;;7.30;99.90;;;;;;4058799;29;20205;-93
2023/01/14 00:29:42;;;;;;;37.10;3.90;;;7.40;99.90;;;;;;4045816;29;20181;-94
2023/01/14 00:32:01;;;;;;;39.53;4.27;;;7.50;99.90;;;;;;4066263;29;20160;-95
2023/01/14 00:34:10;;;;;;;39.10;3.70;;;7.30;99.90;;;;;;4046248;29;20158;-95
2023/01/14 00:38:27;;;;;;;32.07;3.67;;;7.30;99.90;;;;;;4233451;23;20237;-93
2023/01/14 00:40:28;;;;;;;28.77;3.60;;;7.20;99.90;;;;;;4060393;29;20177;-93
2023/01/14 00:42:31;;;;;;;34.17;4.60;;;7.30;99.90;;;;;;4059491;29;20188;-95
2023/01/14 00:44:35;;;;;;;38.73;4.87;;;7.30;99.90;;;;;;4062535;29;20185;-94
2023/01/14 00:46:41;;;;;;;19.95;3.40;;;7.30;99.90;;;;;;4048926;29;20233;-94
2023/01/14 00:48:45;;;;;;;41.10;4.53;;;7.30;99.90;;;;;;4046673;29;20181;-95
2023/01/14 00:50:46;;;;;;;36.93;4.20;;;7.50;99.90;;;;;;4049174;29;20625;-94
2023/01/14 00:52:58;;;;;;;39.17;3.87;;;7.50;99.90;;;;;;4031554;29;20242;-94
2023/01/14 00:55:01;;;;;;;42.07;4.00;;;7.30;99.90;;;;;;4044997;29;20185;-94
2023/01/14 00:57:14;;;;;;;30.08;4.65;;;7.20;99.90;;;;;;4030705;29;20269;-94
2023/01/14 00:59:27;;;;;;;34.65;4.13;;;7.20;99.90;;;;;;4031485;29;20174;-93
2023/01/14 01:01:33;;;;;;;37.77;3.80;;;7.30;99.90;;;;;;4061541;29;20189;-94
2023/01/14 01:03:57;;;;;;;41.33;4.10;;;7.30;99.90;;;;;;4032462;29;20199;-93
2023/01/14 01:05:58;;;;;;;37.47;4.43;;;7.40;99.90;;;;;;4016639;29;20696;-93
2023/01/14 01:08:04;;;;;;;29.20;3.88;;;7.50;99.90;;;;;;4044002;29;20206;-93
2023/01/14 01:10:27;;;;;;;21.70;2.97;;;7.40;99.90;;;;;;4050524;29;20245;-94
2023/01/14 01:12:31;;;;;;;36.45;4.35;;;7.30;99.90;;;;;;4028013;29;20179;-95
2023/01/14 01:14:35;;;;;;;34.03;4.35;;;7.20;99.90;;;;;;4043346;29;20189;-95
2023/01/14 01:16:56;;;;;;;43.03;4.43;;;7.20;99.90;;;;;;4046702;29;20201;-94
2023/01/14 01:21:44;;;;;;;34.45;4.00;;;7.20;99.90;;;;;;4030407;29;20220;-94
2023/01/14 01:24:19;;;;;;;38.50;4.10;;;7.30;99.90;;;;;;4045869;29;20169;-95
2023/01/14 01:27:16;;;;;;;26.93;3.53;;;7.20;99.90;;;;;;4047923;29;20221;-94
2023/01/14 01:29:51;;;;;;;30.70;3.63;;;7.20;99.90;;;;;;4047112;29;20174;-94
2023/01/14 01:31:55;;;;;;;26.93;3.37;;;7.20;99.90;;;;;;4031095;29;20189;-93
2023/01/14 01:34:11;;;;;;;34.07;3.23;;;7.10;99.90;;;;;;4033438;29;20174;-96
2023/01/14 01:36:23;;;;;;;26.50;3.53;;;7.10;99.90;;;;;;4033861;29;20173;-96
2023/01/14 01:38:47;;;;;;;31.17;4.47;;;7.20;99.90;;;;;;4045293;29;20543;-95
2023/01/14 01:40:52;;;;;;;22.03;3.37;;;7.20;99.90;;;;;;4050473;29;20193;-95
2023/01/14 01:43:18;;;;;;;29.52;3.47;;;7.10;99.90;;;;;;4061656;29;20183;-94
2023/01/14 01:48:58;;;;;;;27.87;3.63;;;7.10;99.90;;;;;;4039908;29;20224;-95
2023/01/14 01:51:32;;;;;;;29.80;3.20;;;7.10;99.90;;;;;;4013587;29;20243;-94
2023/01/14 01:53:55;;;;;;;26.17;3.80;;;7.20;99.90;;;;;;4012064;29;20179;-94
2023/01/14 01:56:21;;;;;;;30.00;3.00;;;7.20;99.90;;;;;;4021381;29;20178;-94
2023/01/14 01:58:56;;;;;;;25.97;2.83;;;7.30;99.90;;;;;;4030510;29;20207;-95
2023/01/14 02:00:58;;;;;;;24.95;3.15;;;7.30;99.90;;;;;;4033201;29;20268;-94
2023/01/14 02:03:20;;;;;;;;;;;;;;;;;;;;;
2023/01/14 02:05:33;;;;;;;24.77;3.50;;;7.50;99.90;;;;;;4046937;29;20174;-93
2023/01/14 02:08:02;;;;;;;26.40;3.58;;;7.60;99.90;;;;;;4012124;29;20211;-96
2023/01/14 02:10:07;;;;;;;31.70;3.67;;;7.50;99.90;;;;;;4015379;29;20250;-95
2023/01/14 02:12:15;;;;;;;27.80;2.90;;;7.60;99.90;;;;;;4012256;29;20187;-94
2023/01/14 02:14:50;;;;;;;35.63;3.47;;;7.60;99.90;;;;;;4013905;29;20248;-94
2023/01/14 02:17:21;;;;;;;30.10;3.73;;;7.50;99.90;;;;;;4029380;29;20246;-95
2023/01/14 02:19:43;;;;;;;26.23;3.17;;;7.50;99.90;;;;;;4012001;29;20555;-95
2023/01/14 02:22:10;;;;;;;33.30;3.00;;;7.60;99.90;;;;;;4012881;29;20183;-96
2023/01/14 02:24:49;;;;;;;21.83;3.23;;;7.60;99.90;;;;;;4014118;29;20163;-94
2023/01/14 02:27:14;;;;;;;20.73;2.97;;;7.60;99.90;;;;;;3969866;29;20331;-95
2023/01/14 02:29:52;;;;;;;19.37;2.70;;;7.50;99.90;;;;;;4028720;29;20182;-96
2023/01/14 02:32:15;;;;;;;33.20;3.93;;;7.40;99.90;;;;;;4042181;29;20242;-93
2023/01/14 02:34:24;;;;;;;39.17;3.63;;;7.50;99.90;;;;;;4044891;29;20185;-96
2023/01/14 02:36:45;;;;;;;29.75;3.80;;;7.40;99.90;;;;;;4043599;29;20193;-96
2023/01/14 02:38:58;;;;;;;27.35;3.05;;;7.50;99.90;;;;;;4040328;29;20455;-93
2023/01/14 02:41:24;;;;;;;34.17;4.30;;;7.60;99.90;;;;;;4042764;29;20192;-93
2023/01/14 02:44:12;;;;;;;29.15;3.55;;;7.60;99.90;;;;;;4044943;29;20193;-95
2023/01/14 02:46:37;;;;;;;22.50;3.07;;;7.50;99.90;;;;;;4042742;29;20236;-94
2023/01/14 02:48:53;;;;;;;27.63;3.20;;;7.40;99.90;;;;;;4044775;29;20177;-94
2023/01/14 02:51:04;;;;;;;23.33;3.40;;;7.40;99.90;;;;;;4047027;29;20184;-93
2023/01/14 02:53:34;;;;;;;;;;;;;;;;;;;;;
2023/01/14 02:59:03;;;;;;;24.03;2.87;;;7.60;99.90;;;;;;4042685;29;20608;-94
2023/01/14 03:01:44;;;;;;;31.03;2.77;;;7.60;99.90;;;;;;4061624;29;20188;-94
2023/01/14 03:07:35;;;;;;;21.67;2.80;;;7.70;99.90;;;;;;3997136;29;20263;-94
2023/01/14 03:09:47;;;;;;;34.40;3.87;;;7.60;99.90;;;;;;3984498;29;20192;-95
2023/01/14 03:12:30;;;;;;;33.27;3.83;;;7.40;99.90;;;;;;4000691;29;20680;-95
2023/01/14 03:14:56;;;;;;;33.63;3.00;;;7.40;99.90;;;;;;3992110;29;20192;-94
2023/01/14 03:17:33;;;;;;;27.63;3.00;;;7.30;99.90;;;;;;4030889;29;20202;-95
2023/01/14 03:19:45;;;;;;;22.00;2.97;;;7.40;99.90;;;;;;4026859;29;20249;-95
2023/01/14 03:22:02;;;;;;;23.50;2.67;;;7.40;99.90;;;;;;4044817;29;20177;-93
2023/01/14 03:24:22;;;;;;;24.40;2.70;;;7.40;99.90;;;;;;4041892;29;20185;-93
2023/01/14 03:26:27;;;;;;;28.43;2.87;;;7.40;99.90;;;;;;4042793;29;20334;-96
2023/01/14 03:28:41;;;;;;;31.63;3.60;;;7.40;99.90;;;;;;4028914;29;20211;-96
2023/01/14 03:31:18;;;;;;;32.17;3.77;;;7.60;99.90;;;;;;4042616;29;20351;-94
2023/01/14 03:34:14;;;;;;;33.47;3.60;;;7.70;99.90;;;;;;4043567;29;20184;-96
2023/01/14 03:36:17;;;;;;;34.83;3.43;;;7.70;99.90;;;;;;4029644;29;20183;-94
2023/01/14 03:38:49;;;;;;;33.80;3.77;;;7.90;99.90;;;;;;4044634;29;20197;-93
2023/01/14 03:44:43;;;;;;;20.23;3.15;;;7.90;99.90;;;;;;4046039;29;20600;-95
2023/01/14 03:47:33;;;;;;;26.37;3.67;;;7.80;99.90;;;;;;4027014;29;20224;-94
2023/01/14 03:50:27;;;;;;;28.90;3.30;;;7.80;99.90;;;;;;4027094;29;20281;-94
2023/01/14 03:52:57;;;;;;;19.73;2.97;;;7.70;99.90;;;;;;4024013;29;20691;-96
2023/01/14 03:55:47;;;;;;;;;;;;;;;;;;;;;
2023/01/14 03:59:31;;;;;;;21.00;3.40;;;7.50;99.90;;;;;;4058539;29;20196;-95
2023/01/14 04:02:42;;;;;;;35.13;3.53;;;7.50;99.90;;;;;;4055495;29;20181;-95
2023/01/14 04:07:42;;;;;;;18.13;3.37;;;7.40;99.90;;;;;;3994866;29;20218;-95
2023/01/14 04:15:20;;;;;;;31.73;3.93;;;7.50;99.90;;;;;;4032819;29;20195;-94
2023/01/14 04:15:23;;;;;;;24.40;2.83;;;7.60;99.90;;;;;;4039889;29;20301;-95
2023/01/14 04:20:55;;;;;;;32.40;4.07;;;7.60;99.90;;;;;;4056506;29;20252;-94
2023/01/14 04:23:21;;;;;;;25.40;3.67;;;7.80;99.90;;;;;;4026889;29;20192;-95
2023/01/14 04:25:51;;;;;;;24.87;3.00;;;7.90;99.90;;;;;;4041310;29;20209;-95
2023/01/14 04:28:24;;;;;;;25.83;3.53;;;7.90;99.90;;;;;;4026598;29;20209;-95
2023/01/14 04:31:11;;;;;;;26.20;4.05;;;7.80;99.90;;;;;;4057481;29;20181;-96
2023/01/14 04:34:10;;;;;;;24.53;3.70;;;7.70;99.90;;;;;;3966286;29;20197;-96
2023/01/14 04:37:07;;;;;;;31.47;3.93;;;7.70;99.90;;;;;;3989790;29;20617;-95
2023/01/14 04:39:52;;;;;;;26.43;3.87;;;7.60;99.90;;;;;;3934979;30;20194;-95
2023/01/14 04:42:30;;;;;;;22.83;3.03;;;7.60;99.90;;;;;;3935452;30;20240;-94
2023/01/14 04:45:30;;;;;;;30.73;3.10;;;7.70;99.90;;;;;;3935118;30;20198;-95
2023/01/14 04:47:54;;;;;;;;;;;;;;;;;;;;;
2023/01/14 04:50:44;;;;;;;24.67;3.65;;;7.90;99.90;;;;;;3983157;29;20707;-95
2023/01/14 04:56:34;;;;;;;19.97;3.87;;;8.10;99.90;;;;;;3979616;29;20219;-94
2023/01/14 04:59:37;;;;;;;28.70;3.70;;;8.20;99.90;;;;;;4013368;29;20740;-96
2023/01/14 05:01:46;;;;;;;22.30;3.13;;;8.10;99.90;;;;;;3992915;29;20196;-94
2023/01/14 05:04:45;;;;;;;21.67;3.35;;;8.20;99.90;;;;;;3994176;29;20183;-96
2023/01/14 05:08:02;;;;;;;22.50;3.00;;;8.10;99.90;;;;;;4257078;23;20225;-95
2023/01/14 05:12:58;;;;;;;26.77;3.37;;;8.20;99.90;;;;;;4040444;29;20213;-94
2023/01/14 05:15:41;;;;;;;25.40;3.13;;;8.10;99.90;;;;;;4026764;29;20200;-93
2023/01/14 05:18:15;;;;;;;24.23;3.07;;;8.10;99.90;;;;;;4034387;29;20200;-93
2023/01/14 05:20:45;;;;;;;25.97;3.40;;;8.00;99.90;;;;;;4022552;29;20194;-95
2023/01/14 05:23:18;;;;;;;24.43;3.07;;;8.00;99.90;;;;;;4039699;29;20208;-94
2023/01/14 05:25:57;;;;;;;21.45;3.10;;;8.20;99.90;;;;;;4038809;29;20185;-94
2023/01/14 05:28:44;;;;;;;29.97;3.63;;;8.10;99.90;;;;;;3966588;29;20199;-94
2023/01/14 05:31:12;;;;;;;19.53;3.03;;;8.10;99.90;;;;;;3965495;29;20188;-95
2023/01/14 05:33:23;;;;;;;19.60;2.77;;;8.10;99.90;;;;;;4014886;29;20242;-94
2023/01/14 05:35:25;;;;;;;20.35;2.60;;;8.10;99.90;;;;;;4026252;29;20699;-94
2023/01/14 05:37:37;;;;;;;24.83;3.63;;;8.10;99.90;;;;;;4024527;29;20649;-95
2023/01/14 05:39:59;;;;;;;23.60;2.70;;;8.10;99.90;;;;;;4040233;29;20185;-94
2023/01/14 05:47:40;;;;;;;24.97;2.90;;;8.10;99.90;;;;;;4057404;29;20561;-95
2023/01/14 05:49:56;;;;;;;;;;;;;;;;;;;;;
2023/01/14 05:53:06;;;;;;;24.17;2.93;;;7.90;99.90;;;;;;4058470;29;20236;-94
2023/01/14 05:55:48;;;;;;;15.57;2.37;;;7.80;99.90;;;;;;4038896;29;20277;-94
2023/01/14 06:08:18;;;;;;;13.05;2.75;;;8.00;99.90;;;;;;4055571;29;20177;-93
2023/01/14 06:13:29;;;;;;;12.30;2.63;;;8.10;99.90;;;;;;4007742;29;20661;-92
2023/01/14 06:15:35;;;;;;;12.80;2.87;;;8.20;99.90;;;;;;4052822;29;20188;-90
2023/01/14 06:17:44;;;;;;;11.68;2.78;;;8.20;99.90;;;;;;4022080;29;20541;-91
2023/01/14 06:19:45;;;;;;;23.00;3.33;;;8.20;99.90;;;;;;4021926;29;20722;-92
2023/01/14 06:21:46;;;;;;;10.30;2.10;;;8.30;99.90;;;;;;4022047;29;20193;-92
2023/01/14 06:23:50;;;;;;;20.25;2.65;;;8.30;99.90;;;;;;4021732;29;20170;-92
2023/01/14 06:25:51;;;;;;;10.50;2.25;;;8.20;99.90;;;;;;4022059;29;20237;-91
2023/01/14 06:27:52;;;;;;;14.52;2.55;;;8.20;99.90;;;;;;4024735;29;20275;-93
2023/01/14 06:29:53;;;;;;;13.85;2.38;;;8.20;99.90;;;;;;4024977;29;20197;-92
2023/01/14 06:31:53;;;;;;;11.57;2.40;;;8.30;99.90;;;;;;4024751;29;20739;-91
2023/01/14 06:33:57;;;;;;;12.40;2.97;;;8.40;99.90;;;;;;4024894;29;20175;-91
2023/01/14 06:36:00;;;;;;;9.23;2.22;;;8.40;99.90;;;;;;4040275;29;20220;-92
2023/01/14 06:38:01;;;;;;;11.50;2.22;;;8.40;99.90;;;;;;4040234;29;20288;-93
2023/01/14 06:40:01;;;;;;;7.50;2.10;;;8.50;99.90;;;;;;4024680;29;20614;-91
2023/01/14 06:42:02;;;;;;;11.70;2.30;;;8.50;99.90;;;;;;4024804;29;20186;-91
2023/01/14 06:44:03;;;;;;;11.85;2.72;;;8.50;99.90;;;;;;4039879;29;20178;-94
2023/01/14 06:46:04;;;;;;;12.88;2.58;;;8.50;99.90;;;;;;4024800;29;20225;-91
2023/01/14 06:48:05;;;;;;;13.70;2.45;;;8.60;99.90;;;;;;4024649;29;20545;-91
2023/01/14 06:50:06;;;;;;;13.77;2.90;;;8.60;99.90;;;;;;4024797;29;20179;-90
2023/01/14 06:52:07;;;;;;;19.45;2.50;;;8.70;99.90;;;;;;4024444;29;20202;-92
2023/01/14 06:54:08;;;;;;;15.43;2.53;;;8.70;99.90;;;;;;4024078;29;20197;-93
2023/01/14 06:56:12;;;;;;;13.70;1.55;;;8.60;99.90;;;;;;4039869;29;20185;-91
2023/01/14 06:58:14;;;;;;;14.43;2.70;;;8.70;99.90;;;;;;4039968;29;20205;-91
2023/01/14 07:00:15;;;;;;;12.68;2.50;;;8.80;99.90;;;;;;4024617;29;20185;-91
2023/01/14 07:02:16;;;;;;;14.50;2.38;;;8.70;99.90;;;;;;4055467;29;20177;-91
2023/01/14 07:04:16;;;;;;;10.57;2.13;;;8.80;99.90;;;;;;4039810;29;20658;-91
2023/01/14 07:06:17;;;;;;;10.43;2.28;;;8.80;99.90;;;;;;4023923;29;20217;-92
2023/01/14 07:08:24;;;;;;;13.05;2.42;;;8.80;99.90;;;;;;4039672;29;20646;-91
2023/01/14 07:10:25;;;;;;;6.18;1.55;;;8.90;99.90;;;;;;4054766;29;20555;-91
2023/01/14 07:12:26;;;;;;;11.77;1.90;;;9.00;99.90;;;;;;4039874;29;20321;-92
2023/01/14 07:14:26;;;;;;;11.75;2.63;;;9.00;99.90;;;;;;4024217;29;20628;-91
2023/01/14 07:16:27;;;;;;;11.15;2.30;;;9.00;99.90;;;;;;4024180;29;20631;-89
2023/01/14 07:18:28;;;;;;;15.50;2.38;;;9.10;99.90;;;;;;4039812;29;20247;-91
2023/01/14 07:20:28;;;;;;;19.98;2.25;;;9.00;99.90;;;;;;4024234;29;20186;-94
2023/01/14 07:22:30;;;;;;;12.98;1.85;;;9.10;99.90;;;;;;4039608;29;20170;-93
2023/01/14 07:24:31;;;;;;;15.73;2.13;;;9.10;99.90;;;;;;4024370;29;20182;-91
2023/01/14 07:26:32;;;;;;;15.23;2.60;;;9.10;99.90;;;;;;4024161;29;20213;-92
2023/01/14 07:28:32;;;;;;;12.23;1.70;;;9.10;99.90;;;;;;4023820;29;20210;-93
2023/01/14 07:30:34;;;;;;;17.52;2.53;;;9.20;99.90;;;;;;4023991;29;20291;-92
2023/01/14 07:32:37;;;;;;;12.35;2.20;;;9.20;99.90;;;;;;4023996;29;20170;-90
2023/01/14 07:34:37;;;;;;;13.00;2.50;;;9.30;99.90;;;;;;4023829;29;20226;-91
2023/01/14 07:36:38;;;;;;;14.48;2.70;;;9.30;99.90;;;;;;4024091;29;20198;-92
2023/01/14 07:38:39;;;;;;;13.93;2.20;;;9.30;99.90;;;;;;4038042;29;20732;-92
2023/01/14 07:40:40;;;;;;;12.90;2.33;;;9.40;99.90;;;;;;4039015;29;20180;-91
2023/01/14 07:42:41;;;;;;;15.27;2.40;;;9.40;99.90;;;;;;4023625;29;20186;-92
2023/01/14 07:44:43;;;;;;;8.55;1.73;;;9.30;99.90;;;;;;4023674;29;20178;-93
2023/01/14 07:46:45;;;;;;;8.80;1.80;;;9.30;99.90;;;;;;4023773;29;20719;-92
2023/01/14 07:48:46;;;;;;;17.75;1.83;;;9.40;99.90;;;;;;4054650;29;20286;-93
2023/01/14 07:50:46;;;;;;;19.08;1.98;;;9.40;99.90;;;;;;4023898;29;20217;-93
2023/01/14 07:52:56;;;;;;;10.27;1.65;;;9.40;99.90;;;;;;4023615;29;20564;-92
2023/01/14 07:54:57;;;;;;;14.70;2.65;;;9.30;99.90;;;;;;4023612;29;20260;-91
2023/01/14 07:56:57;;;;;;;11.73;3.08;;;9.30;99.90;;;;;;4023621;29;20556;-92
2023/01/14 07:58:58;;;;;;;18.38;2.20;;;9.20;99.90;;;;;;4023643;29;20186;-92
2023/01/14 08:01:04;;;;;;;12.48;1.67;;;9.30;99.90;;;;;;4023628;29;20177;-92
2023/01/14 08:03:05;;;;;;;16.15;2.05;;;9.30;99.90;;;;;;4023608;29;20182;-92
2023/01/14 08:05:09;;;;;;;15.88;1.90;;;9.40;99.90;;;;;;4024218;29;20266;-92
2023/01/14 08:07:10;;;;;;;13.70;1.85;;;9.40;99.90;;;;;;4038921;29;20663;-94
2023/01/14 08:09:10;;;;;;;20.20;2.30;;;9.60;99.90;;;;;;4023367;29;20178;-91
2023/01/14 08:11:11;;;;;;;10.23;2.30;;;9.60;99.90;;;;;;4038477;29;20193;-93
2023/01/14 08:13:13;;;;;;;20.40;2.17;;;9.60;99.90;;;;;;4038703;29;20196;-92
2023/01/14 08:15:13;;;;;;;10.27;2.13;;;9.60;99.90;;;;;;4023373;29;20194;-92
2023/01/14 08:17:14;;;;;;;23.63;2.50;;;9.60;99.90;;;;;;4023384;29;20553;-92
2023/01/14 08:19:17;;;;;;;14.18;1.88;;;9.50;99.90;;;;;;4023494;29;20235;-93
2023/01/14 08:21:17;;;;;;;14.88;1.92;;;9.50;99.90;;;;;;4023463;29;20652;-93
2023/01/14 08:43:54;;;;;;;13.57;1.67;;;9.50;99.90;;;;;;4082937;29;20232;-94
2023/01/14 10:09:37;;;;;;;;;;;;;;;;;;;;;
2023/01/14 10:21:01;;;;;;;;;;;;;;;;;;;;;
2023/01/14 10:27:37;;;;;;;;;;;;;;;;;;;;;
2023/01/14 10:54:24;;;;;;;4.53;0.50;;;10.50;99.90;;;;;;4092114;23;20312;-96
2023/01/14 11:24:21;;;;;;;;;;;;;;;;;;;;;
2023/01/14 11:27:31;;;;;;;1.85;0.40;;;10.50;99.90;;;;;;4038209;29;20243;-94
2023/01/14 11:30:12;;;;;;;;;;;;;;;;;;;;;
2023/01/14 11:33:26;;;;;;;2.08;0.45;;;10.60;99.90;;;;;;3985749;29;20708;-95
2023/01/14 11:40:09;;;;;;;5.97;0.55;;;10.60;99.90;;;;;;3923966;30;20206;-95
